Alburg, Vermont
Current Conditions -  °F | °C
As of 5:35 AM on Friday 24 Oct 2014 (Local Time) from KFSO Reporting Station
Drizzle Drizzle  
Wind Chill: 34°   Ceiling: 500
Heat Index: 40°   Visibility: 3mi
Dew Point: 40°   Wind: 10mph
Humidity: 97%   Direction: 360°N
Pressure: 29.86"   Gusts: NA
Location:  44.9685°N, 73.281°W
Report Text: KFSO 240935Z AUTO 36009KT 3SM -DZ BKN005 OVC010 05/04 A2986 RMK AO2 T00470042
Loading
Personal Weather Stations






























Interactive Weather Map
Tropical Storm Tracking
New forecast layout! Learn more

10-Day Weather Forecast

Advertisements
Track Severe Weather on mobile